Time;durP1;ratioP1;P1;durP2;ratioP2;P2;SDS_P1;SDS_P2;PMS_P1;PMS_P2;Temp;Humidity;BMP_temperature;BMP_pressure;BME280_temperature;BME280_humidity;BME280_pressure;Samples;Min_cycle;Max_cycle;Signal;HPM_P1;HPM_P2
2022/09/16 00:01:15;;;;;;;;;11.00;9.25;;;27.26;99928.84;;;;117170;1192;25429;-69
2022/09/16 00:03:47;;;;;;;;;11.25;9.75;;;27.26;99929.99;;;;117042;1193;25558;-70
2022/09/16 00:06:21;;;;;;;;;15.75;11.75;;;27.27;99923.98;;;;117054;1193;25267;-68
2022/09/16 00:08:51;;;;;;;;;14.25;11.50;;;27.29;99922.76;;;;117079;1193;25025;-71
2022/09/16 00:11:20;;;;;;;;;11.75;9.25;;;27.30;99921.64;;;;117103;1193;24950;-67
2022/09/16 00:13:49;;;;;;;;;13.00;10.75;;;27.29;99914.18;;;;117107;1193;25080;-68
2022/09/16 00:16:21;;;;;;;;;9.25;9.25;;;27.29;99910.46;;;;117146;1192;24910;-69
2022/09/16 00:18:58;;;;;;;;;11.00;8.75;;;27.30;99901.29;;;;117033;1193;25287;-68
2022/09/16 00:21:28;;;;;;;;;9.25;8.75;;;27.30;99897.77;;;;117135;1193;24827;-68
2022/09/16 00:23:56;;;;;;;;;16.33;13.00;;;27.29;99891.97;;;;117030;1193;25576;-68
2022/09/16 00:26:24;;;;;;;;;9.67;7.33;;;27.29;99886.48;;;;117051;1193;24953;-67
2022/09/16 00:28:53;;;;;;;;;10.75;7.50;;;27.28;99890.52;;;;117113;1193;25732;-68
2022/09/16 00:31:21;;;;;;;;;14.00;10.00;;;27.27;99893.98;;;;117055;1193;25016;-68
2022/09/16 00:33:50;;;;;;;;;12.25;10.00;;;27.27;99891.45;;;;117029;1193;25627;-67
2022/09/16 00:36:19;;;;;;;;;9.67;9.33;;;27.26;99887.36;;;;117051;1193;25231;-67
2022/09/16 00:38:53;;;;;;;;;11.75;10.25;;;27.26;99878.11;;;;117132;1193;25237;-68
2022/09/16 00:41:27;;;;;;;;;11.00;8.75;;;27.26;99888.85;;;;117117;1193;25546;-67
2022/09/16 00:44:04;;;;;;;;;10.50;10.50;;;27.26;99892.74;;;;117113;1192;25479;-68
2022/09/16 00:46:45;;;;;;;;;13.33;11.00;;;27.27;99886.73;;;;117158;1192;24884;-67
2022/09/16 00:49:19;;;;;;;;;11.67;10.33;;;27.27;99883.77;;;;117060;1193;25351;-67
2022/09/16 00:51:50;;;;;;;;;16.25;8.50;;;27.26;99876.42;;;;117062;1193;24858;-67
2022/09/16 00:54:19;;;;;;;;;15.75;11.00;;;27.28;99873.88;;;;117070;1191;24900;-68
2022/09/16 00:56:52;;;;;;;;;12.00;8.25;;;27.28;99872.99;;;;117117;1191;25423;-67
2022/09/16 00:59:25;;;;;;;;;11.25;10.25;;;27.28;99869.77;;;;117178;1191;24954;-68
2022/09/16 01:01:55;;;;;;;;;12.00;9.33;;;27.28;99868.64;;;;117392;1191;24953;-68
2022/09/16 01:04:27;;;;;;;;;9.67;8.67;;;27.29;99871.89;;;;117177;1191;25103;-68
2022/09/16 01:06:56;;;;;;;;;9.50;9.00;;;27.29;99863.63;;;;117093;1192;25410;-68
2022/09/16 01:09:25;;;;;;;;;12.00;10.75;;;27.29;99857.00;;;;117139;1191;26049;-69
2022/09/16 01:11:54;;;;;;;;;12.75;10.25;;;27.30;99859.91;;;;117168;1191;25127;-67
2022/09/16 01:17:27;;;;;;;;;9.00;9.00;;;27.28;99859.84;;;;117198;1191;25240;-67
2022/09/16 01:20:32;;;;;;;;;14.75;12.25;;;27.27;99862.48;;;;117197;1192;24814;-68
2022/09/16 01:23:10;;;;;;;;;16.67;12.00;;;27.29;99856.96;;;;117169;1192;25431;-68
2022/09/16 01:26:03;;;;;;;;;12.50;9.75;;;27.27;99858.89;;;;117387;1191;24989;-69
2022/09/16 01:28:53;;;;;;;;;9.00;9.00;;;27.28;99863.79;;;;117119;1192;25095;-69
2022/09/16 01:31:31;;;;;;;;;8.50;7.50;;;27.27;99865.05;;;;117157;1192;25602;-68
2022/09/16 01:34:07;;;;;;;;;14.67;11.67;;;27.26;99865.96;;;;117170;1190;25432;-69
2022/09/16 01:36:53;;;;;;;;;14.00;11.00;;;27.26;99868.63;;;;117129;1192;25063;-68
2022/09/16 01:39:37;;;;;;;;;7.50;3.75;;;27.27;99864.26;;;;117161;1192;25475;-70
2022/09/16 01:42:38;;;;;;;;;12.00;11.75;;;27.27;99865.65;;;;117185;1192;25563;-69
2022/09/16 01:45:40;;;;;;;;;13.00;9.00;;;27.28;99866.07;;;;117162;1191;24973;-69
2022/09/16 01:48:26;;;;;;;;;13.00;10.33;;;27.28;99863.84;;;;117155;1192;24803;-69
2022/09/16 01:51:26;;;;;;;;;12.67;9.00;;;27.27;99863.25;;;;117205;1192;25156;-69
2022/09/16 01:54:15;;;;;;;;;12.00;8.00;;;27.31;99858.48;;;;117066;1193;25258;-71
2022/09/16 01:56:44;;;;;;;;;12.00;10.00;;;27.33;99863.73;;;;117149;1192;25372;-72
2022/09/16 01:59:26;;;;;;;;;10.67;8.67;;;27.32;99865.06;;;;117152;1191;24886;-72
2022/09/16 02:02:02;;;;;;;;;9.75;7.00;;;27.31;99867.72;;;;117126;1193;25662;-66
2022/09/16 02:04:36;;;;;;;;;12.50;10.25;;;27.34;99861.83;;;;117106;1192;25358;-68
2022/09/16 02:07:06;;;;;;;;;10.50;9.25;;;27.34;99860.02;;;;117165;1191;25548;-72
2022/09/16 02:09:39;;;;;;;;;12.50;7.75;;;27.33;99863.41;;;;117101;1192;25466;-72
2022/09/16 02:12:12;;;;;;;;;11.33;9.00;;;27.32;99863.46;;;;117208;1191;24899;-71
2022/09/16 02:14:43;;;;;;;;;2.33;2.00;;;27.32;99866.34;;;;117067;1192;25693;-71
2022/09/16 02:17:15;;;;;;;;;10.67;10.67;;;27.31;99866.23;;;;117055;1194;24963;-73
2022/09/16 02:19:57;;;;;;;;;12.25;9.25;;;27.31;99869.14;;;;117160;1190;25746;-72
2022/09/16 02:22:31;;;;;;;;;8.25;8.00;;;27.32;99873.98;;;;117167;1191;25301;-71
2022/09/16 02:25:02;;;;;;;;;9.33;9.33;;;27.31;99872.73;;;;117103;1192;25687;-71
2022/09/16 02:27:31;;;;;;;;;9.50;7.75;;;27.31;99872.98;;;;117119;1192;25318;-71
2022/09/16 02:30:04;;;;;;;;;12.00;9.67;;;27.30;99881.77;;;;117033;1193;25509;-71
2022/09/16 02:32:36;;;;;;;;;7.00;6.00;;;27.28;99885.90;;;;117049;1193;25514;-71
2022/09/16 02:35:08;;;;;;;;;8.00;8.00;;;27.29;99882.47;;;;117116;1193;24906;-71
2022/09/16 02:37:50;;;;;;;;;11.00;8.75;;;27.28;99886.77;;;;117161;1191;25657;-71
2022/09/16 02:40:24;;;;;;;;;8.75;8.75;;;27.30;99884.65;;;;117157;1191;24952;-71
2022/09/16 02:42:53;;;;;;;;;11.00;8.00;;;27.32;99885.54;;;;117098;1192;24807;-71
2022/09/16 02:45:25;;;;;;;;;10.50;8.25;;;27.32;99883.88;;;;117045;1192;25080;-71
2022/09/16 02:48:12;;;;;;;;;9.75;9.00;;;27.30;99879.34;;;;117079;1193;25221;-72
2022/09/16 02:50:47;;;;;;;;;7.00;6.75;;;27.32;99878.77;;;;117079;1193;24960;-68
2022/09/16 02:53:37;;;;;;;;;12.33;10.67;;;27.33;99877.81;;;;117173;1191;25164;-68
2022/09/16 02:56:32;;;;;;;;;10.00;10.00;;;27.33;99891.88;;;;117381;1191;25362;-69
2022/09/16 02:59:02;;;;;;;;;12.00;8.75;;;27.33;99899.14;;;;117079;1192;25276;-69
2022/09/16 03:01:33;;;;;;;;;8.50;8.25;;;27.35;99904.85;;;;117193;1189;25159;-68
2022/09/16 03:04:03;;;;;;;;;13.25;10.75;;;27.33;99907.38;;;;117193;1191;24777;-69
2022/09/16 03:06:34;;;;;;;;;9.67;8.00;;;27.32;99898.13;;;;117399;1191;25480;-68
2022/09/16 03:09:05;;;;;;;;;11.75;9.50;;;27.31;99896.34;;;;117114;1192;25072;-70
2022/09/16 03:11:52;;;;;;;;;10.00;10.00;;;27.30;99899.42;;;;117189;1192;24978;-70
2022/09/16 03:14:36;;;;;;;;;12.67;7.67;;;27.29;99905.73;;;;117391;1191;25097;-68
2022/09/16 03:17:13;;;;;;;;;8.00;7.00;;;27.28;99903.55;;;;117181;1191;25188;-69
2022/09/16 03:19:59;;;;;;;;;11.67;10.33;;;27.26;99906.86;;;;117145;1191;25190;-67
2022/09/16 03:22:36;;;;;;;;;13.50;8.50;;;27.27;99903.23;;;;117413;1191;24725;-68
2022/09/16 03:25:21;;;;;;;;;15.00;10.33;;;27.29;99905.52;;;;117176;1191;25264;-68
2022/09/16 03:27:54;;;;;;;;;8.00;7.33;;;27.29;99905.34;;;;117178;1192;25684;-70
2022/09/16 03:30:23;;;;;;;;;9.00;7.75;;;27.29;99904.02;;;;117172;1192;25623;-68
2022/09/16 03:33:03;;;;;;;;;11.00;10.00;;;27.28;99902.11;;;;117204;1192;25044;-68
2022/09/16 03:35:38;;;;;;;;;9.00;7.00;;;27.27;99892.25;;;;117390;1190;25048;-68
2022/09/16 03:38:07;;;;;;;;;11.00;10.67;;;27.29;99893.77;;;;117385;1191;24959;-68
2022/09/16 03:40:36;;;;;;;;;9.00;9.00;;;27.29;99895.14;;;;117074;1192;25403;-68
2022/09/16 03:43:12;;;;;;;;;13.00;9.50;;;27.28;99885.23;;;;117406;1191;25214;-70
2022/09/16 03:45:43;;;;;;;;;10.25;8.75;;;27.26;99885.80;;;;117396;1191;25201;-70
2022/09/16 03:48:12;;;;;;;;;13.75;11.00;;;27.26;99882.64;;;;117210;1191;25189;-71
2022/09/16 03:50:40;;;;;;;;;9.75;7.50;;;27.25;99886.67;;;;117215;1191;24885;-69
2022/09/16 03:53:09;;;;;;;;;11.50;10.25;;;27.24;99893.64;;;;117057;1192;25550;-68
2022/09/16 03:55:37;;;;;;;;;14.67;10.67;;;27.23;99894.02;;;;117130;1190;25624;-68
2022/09/16 03:58:06;;;;;;;;;9.00;9.00;;;27.24;99891.83;;;;117145;1192;25464;-70
2022/09/16 04:00:34;;;;;;;;;14.00;9.33;;;27.23;99890.33;;;;117164;1191;25644;-70
2022/09/16 04:03:02;;;;;;;;;13.00;11.00;;;27.23;99892.05;;;;117205;1190;25259;-71
2022/09/16 04:05:31;;;;;;;;;13.75;10.00;;;27.23;99892.23;;;;117180;1192;25009;-75
2022/09/16 04:07:59;;;;;;;;;10.67;10.33;;;27.22;99895.31;;;;117171;1192;25320;-78
2022/09/16 04:10:28;;;;;;;;;14.50;9.75;;;27.23;99892.80;;;;117092;1191;25728;-79
2022/09/16 04:12:57;;;;;;;;;13.00;9.33;;;27.22;99894.02;;;;117430;1191;24753;-75
2022/09/16 04:15:25;;;;;;;;;13.75;9.00;;;27.22;99891.61;;;;117201;1191;25103;-72
2022/09/16 04:17:55;;;;;;;;;10.00;7.50;;;27.23;99892.46;;;;116940;1191;25146;-66
2022/09/16 04:20:23;;;;;;;;;15.00;9.00;;;27.23;99893.73;;;;117155;1191;25304;-66
2022/09/16 04:22:52;;;;;;;;;9.50;8.25;;;27.24;99891.94;;;;117149;1192;25200;-68
2022/09/16 04:25:20;;;;;;;;;12.00;9.00;;;27.24;99887.64;;;;117078;1192;24808;-66
2022/09/16 04:27:48;;;;;;;;;9.75;8.75;;;27.23;99889.70;;;;117120;1192;25065;-66
2022/09/16 04:30:17;;;;;;;;;11.25;7.00;;;27.23;99890.89;;;;117094;1191;25072;-67
2022/09/16 04:32:46;;;;;;;;;15.25;11.00;;;27.22;99891.44;;;;117393;1191;24838;-66
2022/09/16 04:35:18;;;;;;;;;12.50;8.75;;;27.23;99891.17;;;;117175;1190;25137;-66
2022/09/16 04:37:46;;;;;;;;;10.00;9.00;;;27.22;99899.77;;;;117388;1191;25274;-67
2022/09/16 04:40:15;;;;;;;;;17.50;15.50;;;27.22;99908.74;;;;117176;1192;25443;-67
2022/09/16 04:42:49;;;;;;;;;12.50;10.00;;;27.23;99906.80;;;;117099;1192;25758;-67
2022/09/16 04:45:17;;;;;;;;;13.50;9.00;;;27.23;99905.84;;;;117183;1191;25561;-66
2022/09/16 04:47:46;;;;;;;;;12.75;9.75;;;27.23;99895.11;;;;117159;1192;24878;-69
2022/09/16 04:50:15;;;;;;;;;14.00;10.00;;;27.23;99910.94;;;;117094;1192;24937;-67
2022/09/16 04:52:43;;;;;;;;;10.25;8.50;;;27.23;99918.05;;;;117193;1192;25601;-68
2022/09/16 04:55:11;;;;;;;;;10.50;9.50;;;27.22;99909.43;;;;117093;1192;25640;-69
2022/09/16 04:57:40;;;;;;;;;17.25;11.50;;;27.23;99918.50;;;;117168;1192;25385;-66
2022/09/16 05:00:10;;;;;;;;;14.25;9.50;;;27.22;99911.02;;;;117080;1192;24699;-67
2022/09/16 05:02:38;;;;;;;;;12.00;9.25;;;27.22;99914.07;;;;117165;1192;24963;-67
2022/09/16 05:05:07;;;;;;;;;14.00;9.25;;;27.22;99921.22;;;;117024;1192;24713;-68
2022/09/16 05:07:35;;;;;;;;;13.33;11.33;;;27.22;99923.10;;;;117183;1192;25541;-70
2022/09/16 05:10:04;;;;;;;;;12.75;11.50;;;27.22;99927.39;;;;117139;1190;24770;-71
2022/09/16 05:12:33;;;;;;;;;12.25;11.25;;;27.22;99931.09;;;;117201;1192;25596;-68
2022/09/16 05:15:01;;;;;;;;;16.67;10.33;;;27.22;99925.61;;;;117107;1192;24822;-70
2022/09/16 05:17:30;;;;;;;;;15.33;13.67;;;27.23;99932.98;;;;117369;1191;25583;-71
2022/09/16 05:20:18;;;;;;;;;16.00;10.50;;;27.24;99930.67;;;;117218;1192;25169;-71
2022/09/16 05:22:49;;;;;;;;;17.50;12.25;;;27.28;99933.61;;;;117148;1192;25641;-68
2022/09/16 05:25:18;;;;;;;;;18.33;9.33;;;27.27;99934.27;;;;117421;1191;25035;-72
2022/09/16 05:27:46;;;;;;;;;13.00;12.25;;;27.29;99934.24;;;;117057;1192;25033;-74
2022/09/16 05:30:16;;;;;;;;;12.25;10.25;;;27.28;99940.05;;;;117150;1192;24808;-73
2022/09/16 05:32:44;;;;;;;;;12.50;7.50;;;27.28;99938.77;;;;117139;1191;25367;-74
2022/09/16 05:35:13;;;;;;;;;10.75;8.00;;;27.28;99937.54;;;;117116;1191;25700;-73
2022/09/16 05:37:42;;;;;;;;;14.25;13.50;;;27.27;99939.70;;;;117411;1191;25619;-70
2022/09/16 05:40:10;;;;;;;;;14.00;10.67;;;27.27;99943.43;;;;117178;1192;25743;-69
2022/09/16 05:42:39;;;;;;;;;14.25;10.00;;;27.26;99945.79;;;;117144;1191;25033;-68
2022/09/16 05:45:08;;;;;;;;;13.75;13.50;;;27.26;99948.16;;;;117144;1192;24746;-68
2022/09/16 05:47:36;;;;;;;;;14.50;10.00;;;27.26;99951.50;;;;117159;1191;25618;-68
2022/09/16 05:50:06;;;;;;;;;11.50;9.50;;;27.26;99952.84;;;;117191;1191;25745;-68
2022/09/16 05:52:34;;;;;;;;;14.67;12.00;;;27.27;99959.23;;;;117210;1191;25667;-68
2022/09/16 05:55:03;;;;;;;;;15.00;10.33;;;27.28;99964.80;;;;117188;1191;25283;-68
2022/09/16 05:57:31;;;;;;;;;14.00;13.00;;;27.28;99966.91;;;;117238;1191;25329;-66
2022/09/16 06:00:00;;;;;;;;;15.00;10.75;;;27.29;99959.34;;;;117166;1193;25244;-67
2022/09/16 06:02:29;;;;;;;;;17.75;12.25;;;27.30;99959.46;;;;117109;1193;25440;-67
2022/09/16 06:04:58;;;;;;;;;17.00;15.00;;;27.30;99957.71;;;;117024;1193;25462;-67
2022/09/16 06:07:26;;;;;;;;;15.33;12.33;;;27.30;99959.48;;;;117063;1193;25457;-67
2022/09/16 06:09:55;;;;;;;;;18.50;12.75;;;27.31;99962.95;;;;117072;1193;25006;-67
2022/09/16 06:12:23;;;;;;;;;12.75;12.00;;;27.30;99968.88;;;;117118;1191;24960;-68
2022/09/16 06:14:52;;;;;;;;;14.33;12.33;;;27.31;99972.27;;;;117075;1191;25504;-68
2022/09/16 06:17:20;;;;;;;;;14.67;11.67;;;27.31;99973.10;;;;117047;1193;25615;-67
2022/09/16 06:19:49;;;;;;;;;16.00;13.67;;;27.31;99978.15;;;;117077;1194;25553;-67
2022/09/16 06:22:17;;;;;;;;;14.00;11.00;;;27.31;99976.07;;;;117038;1193;25736;-70
2022/09/16 06:24:46;;;;;;;;;9.00;9.00;;;27.31;99979.42;;;;117032;1193;24789;-70
2022/09/16 06:27:15;;;;;;;;;17.25;15.50;;;27.32;99970.89;;;;117007;1193;25667;-69
2022/09/16 06:29:43;;;;;;;;;17.00;12.75;;;27.32;99961.27;;;;117058;1193;25078;-69
2022/09/16 06:32:11;;;;;;;;;25.33;15.33;;;27.33;99964.04;;;;117144;1192;24826;-69
2022/09/16 06:34:40;;;;;;;;;20.00;13.33;;;27.33;99970.80;;;;117026;1193;25255;-69
2022/09/16 06:37:11;;;;;;;;;15.67;13.33;;;27.33;99975.20;;;;117028;1193;24855;-70
2022/09/16 06:39:39;;;;;;;;;18.00;15.25;;;27.34;99976.77;;;;117106;1193;24968;-68
2022/09/16 06:42:08;;;;;;;;;23.50;18.00;;;27.35;99976.65;;;;117146;1192;25203;-68
2022/09/16 06:44:36;;;;;;;;;18.33;15.00;;;27.35;99970.38;;;;117088;1191;25611;-67
2022/09/16 06:47:05;;;;;;;;;17.50;14.75;;;27.36;99974.67;;;;117070;1192;25654;-69
2022/09/16 06:49:33;;;;;;;;;14.67;14.00;;;27.35;99981.54;;;;117111;1193;25125;-68
2022/09/16 06:52:02;;;;;;;;;16.75;12.00;;;27.35;99980.39;;;;117014;1193;25247;-69
2022/09/16 06:54:30;;;;;;;;;25.33;19.00;;;27.36;99974.70;;;;117098;1192;24759;-68
2022/09/16 06:56:59;;;;;;;;;15.50;13.00;;;27.36;99975.91;;;;117117;1192;25466;-67
2022/09/16 06:59:27;;;;;;;;;14.25;12.25;;;27.36;99979.41;;;;117183;1191;25187;-69
2022/09/16 07:01:56;;;;;;;;;15.00;11.00;;;27.36;99978.33;;;;117163;1191;25266;-66
2022/09/16 07:04:25;;;;;;;;;21.00;15.25;;;27.35;99977.45;;;;117118;1190;25675;-68
2022/09/16 07:06:56;;;;;;;;;20.50;14.00;;;27.33;99975.89;;;;117405;1190;25515;-66
2022/09/16 07:09:37;;;;;;;;;10.00;9.25;;;27.37;99975.89;;;;117170;1191;24899;-66
2022/09/16 07:12:07;;;;;;;;;17.67;13.67;;;27.40;99973.94;;;;117402;1191;24897;-67
2022/09/16 07:14:35;;;;;;;;;16.75;15.50;;;27.39;99972.83;;;;117432;1190;25149;-69
2022/09/16 07:17:03;;;;;;;;;22.75;17.25;;;27.39;99973.58;;;;117375;1191;25145;-74
2022/09/16 07:19:32;;;;;;;;;15.50;14.00;;;27.39;99971.70;;;;117169;1191;25205;-70
2022/09/16 07:22:00;;;;;;;;;18.00;12.25;;;27.39;99979.49;;;;117148;1191;25257;-75
2022/09/16 07:24:29;;;;;;;;;16.00;13.33;;;27.42;99985.17;;;;117188;1190;25281;-77
2022/09/16 07:26:57;;;;;;;;;16.00;14.50;;;27.42;99990.06;;;;117118;1191;24971;-74
2022/09/16 07:29:26;;;;;;;;;19.33;11.00;;;27.43;99991.05;;;;117176;1191;25556;-79
2022/09/16 07:31:54;;;;;;;;;16.00;14.75;;;27.45;99992.13;;;;117108;1191;25548;-79
2022/09/16 07:34:23;;;;;;;;;16.67;13.33;;;27.47;99989.33;;;;117131;1192;24751;-79
2022/09/16 07:36:51;;;;;;;;;14.00;11.25;;;27.49;99989.42;;;;117061;1189;25522;-78
2022/09/16 07:39:20;;;;;;;;;15.50;13.25;;;27.51;99991.66;;;;117191;1190;24778;-77
2022/09/16 07:41:48;;;;;;;;;15.50;12.75;;;27.54;99999.45;;;;117171;1191;24953;-77
2022/09/16 07:44:18;;;;;;;;;19.50;11.50;;;27.56;99996.38;;;;117104;1191;25278;-75
2022/09/16 07:46:49;;;;;;;;;12.50;12.50;;;27.57;99991.14;;;;117194;1192;25369;-75
2022/09/16 07:49:19;;;;;;;;;15.25;10.50;;;27.58;99991.41;;;;117154;1192;26126;-75
2022/09/16 07:51:47;;;;;;;;;20.25;13.00;;;27.59;99990.22;;;;117161;1191;25505;-75
2022/09/16 07:54:18;;;;;;;;;15.75;11.50;;;27.59;99989.41;;;;117118;1192;25365;-73
2022/09/16 07:56:47;;;;;;;;;18.25;11.50;;;27.60;99986.04;;;;117164;1192;24890;-74
2022/09/16 07:59:17;;;;;;;;;16.00;13.50;;;27.60;99986.09;;;;117061;1191;24885;-74
2022/09/16 08:01:48;;;;;;;;;15.25;10.25;;;27.59;99991.84;;;;117129;1191;24889;-74
2022/09/16 08:04:19;;;;;;;;;14.25;10.50;;;27.60;99996.52;;;;117069;1191;25246;-74
2022/09/16 08:06:49;;;;;;;;;6.67;6.67;;;27.62;100002.23;;;;117381;1191;25412;-74
2022/09/16 08:09:17;;;;;;;;;16.33;11.33;;;27.63;100003.27;;;;117125;1192;25179;-74
2022/09/16 08:12:09;;;;;;;;;15.67;12.00;;;27.64;99997.09;;;;117148;1190;25015;-73
2022/09/16 08:14:38;;;;;;;;;11.25;9.25;;;27.67;99997.69;;;;117100;1192;25663;-74
2022/09/16 08:17:06;;;;;;;;;16.00;10.67;;;27.68;100000.23;;;;117059;1191;25142;-73
2022/09/16 08:19:37;;;;;;;;;13.50;9.00;;;27.66;100006.11;;;;117187;1192;25225;-75
2022/09/16 08:22:05;;;;;;;;;13.50;11.25;;;27.67;100001.13;;;;117146;1191;24927;-74
2022/09/16 08:24:34;;;;;;;;;16.00;11.33;;;27.67;100001.00;;;;117412;1191;24834;-74
2022/09/16 08:27:03;;;;;;;;;10.33;10.33;;;27.66;100005.90;;;;117137;1191;25701;-75
2022/09/16 08:29:32;;;;;;;;;11.00;9.33;;;27.65;100014.27;;;;117144;1191;25444;-73
2022/09/16 08:32:00;;;;;;;;;9.00;7.50;;;27.64;100018.16;;;;117197;1192;24697;-74
2022/09/16 08:34:29;;;;;;;;;15.50;12.25;;;27.64;100019.10;;;;117201;1192;25106;-74
2022/09/16 08:36:57;;;;;;;;;11.00;8.00;;;27.63;100017.17;;;;117155;1192;24901;-74
2022/09/16 08:39:26;;;;;;;;;9.25;6.75;;;27.63;100010.39;;;;117173;1191;25152;-75
2022/09/16 08:42:06;;;;;;;;;10.00;8.67;;;27.62;100008.25;;;;117109;1191;25078;-74
2022/09/16 08:44:52;;;;;;;;;7.33;7.00;;;27.63;100013.27;;;;117097;1191;25769;-74
2022/09/16 08:48:00;;;;;;;;;8.00;7.50;;;27.65;100024.90;;;;117199;1192;25129;-75
2022/09/16 08:50:32;;;;;;;;;12.50;7.50;;;27.65;100030.64;;;;117428;1190;25129;-76
2022/09/16 08:53:04;;;;;;;;;7.00;6.67;;;27.64;100029.34;;;;117193;1189;25476;-76
2022/09/16 08:55:46;;;;;;;;;8.00;8.00;;;27.64;100020.51;;;;117238;1191;24993;-77
2022/09/16 08:58:47;;;;;;;;;8.50;8.50;;;27.65;100021.14;;;;118046;1191;25219;-76
2022/09/16 09:01:35;;;;;;;;;8.50;7.00;;;27.83;100012.69;;;;117715;1191;25670;-79
2022/09/16 09:04:04;;;;;;;;;6.67;5.00;;;27.90;100013.80;;;;117200;1192;25522;-75
2022/09/16 09:07:01;;;;;;;;;8.00;5.33;;;27.86;100016.19;;;;117164;1191;25266;-74
2022/09/16 09:09:57;;;;;;;;;8.25;7.50;;;27.80;100012.64;;;;117140;1192;25758;-74
2022/09/16 09:12:42;;;;;;;;;9.75;8.00;;;27.77;100017.13;;;;117170;1192;24788;-75
2022/09/16 09:15:23;;;;;;;;;7.67;7.00;;;27.78;100033.52;;;;117123;1191;25416;-75
2022/09/16 09:18:10;;;;;;;;;8.75;6.50;;;27.76;100036.14;;;;117172;1191;25474;-76
2022/09/16 09:20:58;;;;;;;;;8.00;5.75;;;27.72;100036.55;;;;117189;1191;25064;-76
2022/09/16 09:23:41;;;;;;;;;8.50;6.75;;;27.72;100029.11;;;;117395;1190;25674;-75
2022/09/16 09:26:26;;;;;;;;;9.00;7.50;;;27.70;100023.86;;;;117388;1190;25478;-75
2022/09/16 09:29:12;;;;;;;;;6.25;4.50;;;27.69;100021.86;;;;117189;1192;25590;-76
2022/09/16 09:31:47;;;;;;;;;7.75;6.75;;;27.69;100024.09;;;;117391;1189;24987;-77
2022/09/16 09:34:43;;;;;;;;;8.25;5.75;;;27.68;100028.58;;;;117177;1192;24739;-75
2022/09/16 09:37:35;;;;;;;;;6.00;6.00;;;27.70;100028.98;;;;117370;1190;25683;-75
2022/09/16 09:40:22;;;;;;;;;7.00;6.50;;;27.70;100033.88;;;;117162;1191;25380;-75
2022/09/16 09:43:12;;;;;;;;;8.33;5.00;;;27.69;100033.55;;;;117170;1191;25368;-74
2022/09/16 09:45:57;;;;;;;;;7.50;7.50;;;27.71;100034.26;;;;117184;1189;24946;-74
2022/09/16 09:48:37;;;;;;;;;4.75;4.75;;;27.71;100039.55;;;;117117;1193;25567;-74
2022/09/16 09:51:41;;;;;;;;;6.50;6.25;;;27.71;100044.83;;;;117205;1191;25312;-75
2022/09/16 09:54:25;;;;;;;;;7.25;5.25;;;27.73;100051.14;;;;117096;1191;25158;-76
2022/09/16 09:56:58;;;;;;;;;3.75;3.25;;;27.76;100051.96;;;;117330;1190;25266;-76
2022/09/16 09:59:44;;;;;;;;;5.33;5.00;;;27.74;100054.85;;;;117030;1193;25671;-75
2022/09/16 10:02:16;;;;;;;;;7.00;4.00;;;27.73;100053.60;;;;117184;1193;25151;-76
2022/09/16 10:04:45;;;;;;;;;4.67;4.67;;;27.75;100061.35;;;;117053;1193;25350;-74
2022/09/16 10:07:16;;;;;;;;;4.00;4.00;;;27.74;100060.22;;;;117080;1193;25409;-73
2022/09/16 10:10:00;;;;;;;;;8.50;6.50;;;27.73;100058.09;;;;117043;1192;25521;-75
2022/09/16 10:12:32;;;;;;;;;6.25;4.00;;;27.73;100059.42;;;;117040;1192;25796;-73
2022/09/16 10:15:00;;;;;;;;;5.25;5.25;;;27.74;100055.52;;;;117048;1193;25309;-75
2022/09/16 10:17:31;;;;;;;;;4.50;3.75;;;27.74;100054.92;;;;117122;1192;25046;-75
2022/09/16 10:20:04;;;;;;;;;3.00;3.00;;;27.73;100054.30;;;;117061;1194;24844;-75
2022/09/16 10:22:34;;;;;;;;;3.33;3.00;;;27.73;100048.94;;;;117042;1193;25263;-74
2022/09/16 10:25:17;;;;;;;;;6.50;3.00;;;27.75;100048.21;;;;117071;1191;25506;-74
2022/09/16 10:27:54;;;;;;;;;4.00;3.67;;;27.76;100048.11;;;;116956;1193;25520;-75
2022/09/16 10:30:23;;;;;;;;;5.25;3.75;;;27.81;100045.50;;;;117048;1193;24856;-76
2022/09/16 10:33:10;;;;;;;;;3.00;3.00;;;27.81;100050.54;;;;117058;1193;25180;-75
2022/09/16 10:35:40;;;;;;;;;8.50;6.25;;;27.78;100052.80;;;;117061;1192;24906;-74
2022/09/16 10:38:15;;;;;;;;;5.50;4.00;;;27.77;100049.52;;;;117045;1193;25468;-75
2022/09/16 10:40:54;;;;;;;;;6.75;4.50;;;27.77;100046.94;;;;117115;1191;25138;-74
2022/09/16 10:43:24;;;;;;;;;3.75;3.75;;;27.76;100041.65;;;;117021;1193;25640;-74
2022/09/16 10:45:53;;;;;;;;;6.75;4.00;;;27.76;100045.56;;;;117132;1192;25049;-74
2022/09/16 10:48:25;;;;;;;;;6.00;3.00;;;27.75;100051.45;;;;116895;1193;25379;-76
2022/09/16 10:50:56;;;;;;;;;5.25;4.00;;;27.75;100055.30;;;;117044;1193;25032;-76
2022/09/16 10:53:37;;;;;;;;;4.00;4.00;;;27.75;100047.25;;;;117044;1193;25231;-75
2022/09/16 10:56:18;;;;;;;;;4.75;4.75;;;27.75;100047.36;;;;117018;1193;24862;-74
2022/09/16 10:58:48;;;;;;;;;3.33;3.00;;;27.75;100046.70;;;;117040;1192;25002;-76
2022/09/16 11:01:39;;;;;;;;;4.25;3.00;;;27.76;100054.34;;;;117065;1192;25463;-75
2022/09/16 11:04:30;;;;;;;;;1.00;1.00;;;27.75;100060.95;;;;117027;1193;25692;-75
2022/09/16 11:07:16;;;;;;;;;3.50;3.25;;;27.77;100057.61;;;;117136;1193;25032;-75
2022/09/16 11:09:58;;;;;;;;;5.50;4.00;;;27.79;100045.99;;;;117029;1193;24936;-76
2022/09/16 11:13:04;;;;;;;;;2.33;1.33;;;27.81;100052.87;;;;117138;1191;25173;-75
2022/09/16 11:15:51;;;;;;;;;4.00;3.25;;;27.81;100046.13;;;;117116;1193;25633;-75
2022/09/16 11:18:35;;;;;;;;;4.00;2.00;;;27.78;100051.41;;;;117114;1193;24803;-75
2022/09/16 11:21:10;;;;;;;;;2.00;2.00;;;27.77;100055.34;;;;117076;1194;25476;-75
2022/09/16 11:23:55;;;;;;;;;3.75;3.25;;;27.78;100055.81;;;;117119;1193;25448;-74
2022/09/16 11:26:46;;;;;;;;;8.50;5.50;;;27.78;100057.11;;;;117114;1192;25697;-73
2022/09/16 11:29:23;;;;;;;;;4.00;4.00;;;27.81;100058.70;;;;117153;1192;25153;-75
2022/09/16 11:32:21;;;;;;;;;3.50;3.50;;;27.81;100059.89;;;;117133;1193;25333;-75
2022/09/16 11:35:16;;;;;;;;;1.50;1.00;;;27.79;100057.88;;;;117158;1193;25116;-75
2022/09/16 11:38:12;;;;;;;;;4.50;3.50;;;27.76;100060.59;;;;117126;1192;25146;-75
2022/09/16 11:40:49;;;;;;;;;7.33;3.00;;;27.74;100061.73;;;;117142;1193;24752;-75
2022/09/16 11:43:42;;;;;;;;;5.33;3.00;;;27.74;100066.02;;;;117114;1193;25808;-76
2022/09/16 11:46:22;;;;;;;;;3.00;3.00;;;27.74;100067.80;;;;117178;1192;25730;-78
2022/09/16 11:49:22;;;;;;;;;6.33;3.67;;;27.76;100070.03;;;;117166;1193;24765;-76
2022/09/16 11:52:03;;;;;;;;;5.25;4.00;;;27.78;100069.14;;;;117018;1193;25454;-76
2022/09/16 11:55:06;;;;;;;;;3.00;3.00;;;27.76;100071.95;;;;117096;1193;25397;-76
2022/09/16 11:57:37;;;;;;;;;3.00;3.00;;;27.74;100061.45;;;;117087;1193;24706;-76
2022/09/16 12:00:12;;;;;;;;;4.75;3.75;;;27.72;100047.94;;;;117115;1193;25687;-77
2022/09/16 12:03:00;;;;;;;;;3.75;3.50;;;27.72;100043.76;;;;117108;1193;24864;-76
2022/09/16 12:05:52;;;;;;;;;3.67;3.00;;;27.73;100046.66;;;;117168;1192;24813;-76
2022/09/16 12:08:49;;;;;;;;;3.00;2.50;;;27.75;100048.37;;;;117142;1193;25627;-75
2022/09/16 12:11:23;;;;;;;;;4.00;4.00;;;27.78;100043.96;;;;117125;1192;25530;-76
2022/09/16 12:14:00;;;;;;;;;1.00;1.00;;;27.77;100047.39;;;;117110;1193;25359;-76
2022/09/16 12:17:01;;;;;;;;;4.50;3.25;;;27.75;100039.51;;;;117055;1192;25462;-75
2022/09/16 12:19:51;;;;;;;;;4.25;2.50;;;27.78;100035.97;;;;117113;1193;24723;-77
2022/09/16 12:22:29;;;;;;;;;2.25;2.00;;;27.80;100027.48;;;;117049;1193;25112;-77
2022/09/16 12:25:18;;;;;;;;;3.75;2.00;;;27.78;100030.46;;;;117050;1193;25371;-76
2022/09/16 12:28:05;;;;;;;;;3.33;3.33;;;27.78;100030.08;;;;117134;1193;26410;-75
2022/09/16 12:30:36;;;;;;;;;2.00;2.00;;;27.78;100034.69;;;;117052;1193;25606;-75
2022/09/16 12:33:18;;;;;;;;;3.00;2.25;;;27.77;100035.73;;;;117035;1193;25710;-75
2022/09/16 12:36:06;;;;;;;;;2.00;2.00;;;27.76;100024.70;;;;117966;1192;24970;-74
2022/09/16 12:38:35;;;;;;;;;1.75;0.00;;;27.90;100026.69;;;;118598;1192;25122;-76